Time;durP1;ratioP1;P1;durP2;ratioP2;P2;SDS_P1;SDS_P2;PMS_P1;PMS_P2;Temp;Humidity;BMP_temperature;BMP_pressure;BME280_temperature;BME280_humidity;BME280_pressure;Samples;Min_cycle;Max_cycle;Signal;HPM_P1;HPM_P2
2023/09/25 00:00:19;;;;;;;20.87;10.57;;;;;;;19.10;77.59;101048.20;127110;1085;101918;-76
2023/09/25 00:03:08;;;;;;;21.73;11.77;;;;;;;19.09;78.11;101045.52;128178;1085;104165;-76
2023/09/25 00:05:37;;;;;;;23.77;11.37;;;;;;;19.06;79.09;101041.09;127255;1086;102027;-76
2023/09/25 00:08:06;;;;;;;22.67;12.13;;;;;;;19.02;79.25;101050.78;127233;1086;104184;-75
2023/09/25 00:10:36;;;;;;;21.90;11.75;;;;;;;18.99;79.89;101053.41;127225;1086;104241;-76
2023/09/25 00:13:05;;;;;;;23.70;11.90;;;;;;;18.95;79.20;101050.73;126984;1086;101867;-75
2023/09/25 00:15:34;;;;;;;24.03;11.87;;;;;;;18.93;79.37;101044.48;127046;1086;102169;-75
2023/09/25 00:18:03;;;;;;;22.17;12.57;;;;;;;18.92;80.30;101048.05;126873;1086;103340;-75
2023/09/25 00:20:33;;;;;;;23.97;12.60;;;;;;;18.89;80.52;101043.58;127033;1086;104286;-75
2023/09/25 00:23:02;;;;;;;21.73;11.83;;;;;;;18.86;80.53;101046.20;127058;1085;102011;-75
2023/09/25 00:25:31;;;;;;;25.17;12.73;;;;;;;18.84;81.15;101048.84;126881;1086;104231;-75
2023/09/25 00:28:01;;;;;;;21.83;11.80;;;;;;;18.82;80.59;101039.94;126970;1086;104229;-76
2023/09/25 00:30:31;;;;;;;23.80;12.20;;;;;;;18.80;81.15;101040.79;126822;1086;101880;-75
2023/09/25 00:33:01;;;;;;;23.73;12.13;;;;;;;18.78;81.29;101038.11;126897;1085;104222;-75
2023/09/25 00:35:30;;;;;;;22.93;11.73;;;;;;;18.75;82.00;101039.86;126789;1086;104150;-74
2023/09/25 00:37:59;;;;;;;26.73;12.30;;;;;;;18.70;81.99;101042.47;126786;1085;104155;-75
2023/09/25 00:40:29;;;;;;;21.70;11.87;;;;;;;18.70;81.45;101050.44;126755;1086;102256;-75
2023/09/25 00:42:57;;;;;;;22.00;11.87;;;;;;;18.73;81.48;101058.45;126736;1085;101998;-74
2023/09/25 00:45:26;;;;;;;25.80;12.53;;;;;;;18.81;80.89;101048.78;126843;1086;104166;-74
2023/09/25 00:47:55;;;;;;;25.63;12.13;;;;;;;18.85;80.82;101047.06;126651;1086;104172;-74
2023/09/25 00:50:29;;;;;;;21.97;12.27;;;;;;;18.87;80.97;101045.34;126757;1086;104232;-75
2023/09/25 00:53:06;;;;;;;23.60;11.67;;;;;;;18.84;80.98;101039.95;126866;1086;104213;-74
2023/09/25 00:55:35;;;;;;;24.40;11.30;;;;;;;18.82;80.62;101045.25;126742;1086;104155;-74
2023/09/25 00:58:07;;;;;;;21.90;12.53;;;;;;;18.80;80.84;101035.47;126989;1086;101803;-74
2023/09/25 01:00:37;;;;;;;24.07;12.43;;;;;;;18.77;80.88;101044.30;126903;1086;102078;-75
2023/09/25 01:03:06;;;;;;;24.13;12.93;;;;;;;18.78;81.13;101039.89;127081;1086;101871;-74
2023/09/25 01:05:37;;;;;;;25.73;13.30;;;;;;;18.78;81.27;101042.55;127170;1086;104248;-75
2023/09/25 01:08:07;;;;;;;25.60;12.87;;;;;;;18.75;80.97;101037.20;127169;1086;104210;-75
2023/09/25 01:10:37;;;;;;;26.33;12.73;;;;;;;18.68;82.42;101037.13;127151;1086;105536;-75
2023/09/25 01:13:06;;;;;;;26.07;12.93;;;;;;;18.60;82.25;101035.25;127188;1086;110805;-75
2023/09/25 01:15:35;;;;;;;24.77;12.87;;;;;;;18.56;81.86;101046.70;127014;1086;101989;-74
2023/09/25 01:18:05;;;;;;;28.03;12.63;;;;;;;18.54;81.64;101044.03;126931;1086;102131;-75
2023/09/25 01:20:34;;;;;;;23.03;11.47;;;;;;;18.53;82.02;101042.27;127116;1086;101825;-75
2023/09/25 01:23:04;;;;;;;23.70;11.83;;;;;;;18.48;82.24;101046.61;127133;1086;104197;-75
2023/09/25 01:25:33;;;;;;;27.00;12.77;;;;;;;18.45;82.58;101049.23;127187;1086;104207;-75
2023/09/25 01:28:03;;;;;;;22.87;12.70;;;;;;;18.43;82.59;101050.99;127167;1086;103259;-74
2023/09/25 01:30:32;;;;;;;23.23;12.10;;;;;;;18.41;82.73;101050.97;127249;1086;102041;-74
2023/09/25 01:33:00;;;;;;;26.87;12.43;;;;;;;18.41;82.96;101044.78;126956;1086;104025;-74
2023/09/25 01:35:29;;;;;;;24.83;12.67;;;;;;;18.39;82.88;101041.22;127014;1086;101948;-74
2023/09/25 01:38:00;;;;;;;25.13;13.07;;;;;;;18.39;82.38;101044.76;127100;1086;104242;-74
2023/09/25 01:40:30;;;;;;;25.50;12.60;;;;;;;18.41;83.03;101047.44;127082;1086;101793;-74
2023/09/25 01:42:59;;;;;;;24.30;12.40;;;;;;;18.40;83.06;101048.30;127980;1085;101820;-75
2023/09/25 01:45:28;;;;;;;24.23;12.70;;;;;;;18.37;83.13;101049.17;127611;1086;101998;-74
2023/09/25 01:47:57;;;;;;;25.90;12.83;;;;;;;18.36;83.60;101043.84;127684;1086;101743;-75
2023/09/25 01:50:28;;;;;;;22.50;13.20;;;;;;;18.35;83.58;101052.67;127544;1086;102060;-75
2023/09/25 01:52:58;;;;;;;31.00;13.97;;;;;;;18.32;83.40;101054.42;127672;1086;104101;-74
2023/09/25 01:55:31;;;;;;;24.03;12.53;;;;;;;18.32;83.33;101056.17;128339;1085;104159;-74
2023/09/25 01:58:00;;;;;;;22.63;13.20;;;;;;;18.32;83.51;101053.52;126794;1086;104222;-75
2023/09/25 02:00:29;;;;;;;22.53;13.43;;;;;;;18.35;83.14;101055.33;126815;1086;101877;-75
2023/09/25 02:02:58;;;;;;;21.27;11.70;;;;;;;18.37;83.57;101058.89;127107;1086;102060;-76
2023/09/25 02:05:27;;;;;;;23.77;12.43;;;;;;;18.35;83.93;101066.84;127250;1086;104184;-76
2023/09/25 02:07:55;;;;;;;23.37;12.70;;;;;;;18.32;84.04;101057.09;127249;1086;101900;-74
2023/09/25 02:10:24;;;;;;;23.03;12.67;;;;;;;18.32;83.64;101062.40;126843;1086;102347;-75
2023/09/25 02:12:53;;;;;;;22.97;12.73;;;;;;;18.33;83.60;101060.63;126799;1085;104159;-76
2023/09/25 02:15:22;;;;;;;23.23;12.60;;;;;;;18.35;83.39;101065.95;126960;1086;104215;-77
2023/09/25 02:17:51;;;;;;;22.90;12.53;;;;;;;18.34;83.73;101062.42;127497;1086;104162;-74
2023/09/25 02:20:21;;;;;;;22.80;12.90;;;;;;;18.31;83.98;101065.03;127680;1086;101889;-75
2023/09/25 02:22:51;;;;;;;23.10;13.20;;;;;;;18.26;84.12;101070.29;127849;1086;104165;-75
2023/09/25 02:25:20;;;;;;;25.70;12.43;;;;;;;18.24;84.05;101076.44;128382;1085;102252;-74
2023/09/25 02:27:49;;;;;;;23.73;12.67;;;;;;;18.21;84.25;101074.63;128147;1086;101791;-75
2023/09/25 02:30:18;;;;;;;23.43;12.90;;;;;;;18.18;84.73;101085.20;127947;1086;101775;-75
2023/09/25 02:32:47;;;;;;;26.70;12.57;;;;;;;18.13;84.74;101093.11;127629;1086;104086;-75
2023/09/25 02:35:16;;;;;;;24.67;13.63;;;;;;;18.12;84.60;101090.43;127525;1085;102067;-74
2023/09/25 02:37:44;;;;;;;28.90;12.63;;;;;;;18.09;84.73;101085.08;127588;1085;101974;-74
2023/09/25 02:40:14;;;;;;;24.03;13.33;;;;;;;18.06;84.91;101088.59;127805;1085;101951;-75
2023/09/25 02:42:45;;;;;;;28.07;14.17;;;;;;;18.05;85.24;101091.23;127889;1086;102083;-75
2023/09/25 02:45:14;;;;;;;25.73;13.37;;;;;;;18.03;85.08;101100.92;127405;1086;102012;-75
2023/09/25 02:47:43;;;;;;;25.90;12.87;;;;;;;18.00;84.97;101099.13;127149;1086;102421;-75
2023/09/25 02:50:12;;;;;;;24.07;13.53;;;;;;;17.98;85.29;101099.97;127472;1086;103039;-74
2023/09/25 02:52:43;;;;;;;24.13;13.70;;;;;;;17.95;85.58;101111.42;127664;1086;104199;-75
2023/09/25 02:55:13;;;;;;;26.03;13.33;;;;;;;17.94;86.00;101107.89;127673;1086;101974;-75
2023/09/25 02:57:42;;;;;;;23.93;12.70;;;;;;;17.93;85.73;101113.17;127446;1086;101908;-75
2023/09/25 03:00:12;;;;;;;24.33;13.07;;;;;;;17.90;85.85;101100.77;127337;1086;103251;-75
2023/09/25 03:02:42;;;;;;;27.00;13.80;;;;;;;17.92;85.57;101101.67;127218;1086;102301;-76
2023/09/25 03:05:11;;;;;;;28.13;13.53;;;;;;;17.93;85.46;101102.55;127106;1086;101886;-75
2023/09/25 03:07:40;;;;;;;23.60;13.00;;;;;;;17.91;85.73;101105.19;126981;1086;104228;-75
2023/09/25 03:10:10;;;;;;;24.67;13.30;;;;;;;17.91;85.77;101098.99;127120;1086;101870;-74
2023/09/25 03:12:38;;;;;;;30.03;14.07;;;;;;;17.91;85.65;101104.30;127123;1085;104251;-74
2023/09/25 03:15:09;;;;;;;24.83;13.63;;;;;;;17.89;85.91;101109.59;126814;1086;104248;-74
2023/09/25 03:17:38;;;;;;;29.90;13.37;;;;;;;17.89;85.70;101114.02;126929;1086;101955;-75
2023/09/25 03:20:14;;;;;;;24.70;13.73;;;;;;;17.88;85.99;101123.72;126864;1086;104215;-75
2023/09/25 03:22:44;;;;;;;24.93;13.60;;;;;;;17.84;86.33;101121.87;126831;1086;101867;-75
2023/09/25 03:25:13;;;;;;;22.70;13.70;;;;;;;17.79;86.90;101124.45;126899;1086;104181;-75
2023/09/25 03:27:43;;;;;;;32.70;14.17;;;;;;;17.78;86.64;101129.73;126807;1086;104225;-75
2023/09/25 03:30:13;;;;;;;26.50;13.03;;;;;;;17.78;86.50;101122.66;127020;1086;101868;-75
2023/09/25 03:32:42;;;;;;;25.00;13.83;;;;;;;17.77;86.80;101126.17;127023;1086;102022;-74
2023/09/25 03:35:11;;;;;;;28.57;14.13;;;;;;;17.80;86.44;101127.99;126867;1086;102052;-74
2023/09/25 03:37:40;;;;;;;25.17;13.17;;;;;;;17.83;86.35;101130.70;126877;1086;102073;-75
2023/09/25 03:40:11;;;;;;;26.70;14.33;;;;;;;17.81;86.28;101135.09;126965;1086;102156;-75
2023/09/25 03:42:40;;;;;;;23.97;13.90;;;;;;;17.76;87.07;101135.02;126997;1086;104187;-76
2023/09/25 03:45:10;;;;;;;25.03;14.10;;;;;;;17.70;87.00;101142.88;127722;1086;101768;-75
2023/09/25 03:47:39;;;;;;;25.03;13.50;;;;;;;17.66;87.75;101150.77;127840;1086;104251;-76
2023/09/25 03:50:11;;;;;;;23.53;13.80;;;;;;;17.60;87.67;101149.77;127799;1086;101931;-76
2023/09/25 03:52:40;;;;;;;28.07;14.67;;;;;;;17.55;88.52;101153.23;127684;1087;102073;-76
2023/09/25 03:55:09;;;;;;;26.57;13.70;;;;;;;17.49;89.19;101161.97;127405;1085;101922;-75
2023/09/25 03:57:38;;;;;;;28.10;14.07;;;;;;;17.44;89.15;101153.04;128449;1085;104197;-76
2023/09/25 04:00:10;;;;;;;26.63;14.17;;;;;;;17.40;88.33;101161.80;127416;1086;102366;-75
2023/09/25 04:02:42;;;;;;;28.93;14.53;;;;;;;17.37;88.42;101167.96;127913;1086;102006;-75
2023/09/25 04:05:12;;;;;;;24.10;14.77;;;;;;;17.35;88.52;101174.09;128412;1085;101774;-76
2023/09/25 04:07:40;;;;;;;25.10;13.77;;;;;;;17.32;89.04;101174.92;127946;1086;101878;-76
2023/09/25 04:10:10;;;;;;;30.83;14.17;;;;;;;17.28;89.41;101182.78;127865;1086;101912;-76
2023/09/25 04:12:39;;;;;;;27.50;15.50;;;;;;;17.26;89.47;101182.75;127701;1086;104198;-75
2023/09/25 04:15:13;;;;;;;25.27;14.43;;;;;;;17.23;89.40;101180.96;127607;1085;101936;-77
2023/09/25 04:17:42;;;;;;;;;;;;;;;17.21;90.85;101187.97;128407;1085;104107;-77
2023/09/25 04:20:17;;;;;;;28.17;15.00;;;;;;;17.20;89.77;101177.33;127684;1086;104197;-75
2023/09/25 04:22:47;;;;;;;26.13;14.77;;;;;;;17.21;89.78;101181.78;128146;1085;104157;-76
2023/09/25 04:25:18;;;;;;;29.10;14.73;;;;;;;17.19;89.91;101184.41;127920;1085;104162;-77
2023/09/25 04:27:48;;;;;;;28.30;14.90;;;;;;;17.19;90.28;101184.41;126925;1086;104149;-75
2023/09/25 04:30:18;;;;;;;27.47;14.83;;;;;;;17.19;90.25;101187.05;126562;1086;104153;-75
2023/09/25 04:32:48;;;;;;;25.90;14.67;;;;;;;17.19;90.34;101194.13;126678;1085;104257;-75
2023/09/25 04:35:18;;;;;;;23.57;14.70;;;;;;;17.17;90.50;101199.41;126722;1086;104191;-78
2023/09/25 04:37:46;;;;;;;26.73;15.20;;;;;;;17.15;90.42;101193.16;127763;1085;101810;-78
2023/09/25 04:40:22;;;;;;;27.87;15.37;;;;;;;17.13;90.84;101194.89;126933;1086;104153;-79
2023/09/25 04:42:52;;;;;;;27.53;15.17;;;;;;;17.12;91.00;101190.44;127068;1086;104149;-77
2023/09/25 04:45:21;;;;;;;30.53;15.47;;;;;;;17.12;92.09;101200.16;126939;1086;104168;-78
2023/09/25 04:47:52;;;;;;;31.43;15.97;;;;;;;17.12;92.34;101202.81;127108;1084;104155;-79
2023/09/25 04:50:21;;;;;;;27.27;16.23;;;;;;;17.13;90.97;101207.27;127134;1085;104307;-76
2023/09/25 04:52:50;;;;;;;27.50;14.43;;;;;;;17.15;92.14;101213.48;127046;1086;104063;-76
2023/09/25 04:55:19;;;;;;;28.00;15.67;;;;;;;17.16;91.93;101218.81;127786;1086;101987;-75
2023/09/25 04:57:48;;;;;;;28.90;14.37;;;;;;;17.19;91.57;101221.53;127063;1086;104308;-76
2023/09/25 05:00:18;;;;;;;27.23;14.60;;;;;;;17.21;91.86;101218.91;126918;1086;104596;-73
2023/09/25 05:02:48;;;;;;;24.93;14.40;;;;;;;17.20;93.29;101223.33;126922;1086;101822;-73
2023/09/25 05:05:18;;;;;;;27.00;15.17;;;;;;;17.19;93.10;101224.19;126623;1086;101886;-74
2023/09/25 05:07:48;;;;;;;29.63;15.07;;;;;;;17.19;93.24;101228.61;126520;1086;104153;-74
2023/09/25 05:10:21;;;;;;;28.90;14.70;;;;;;;17.20;92.67;101227.72;126790;1086;104162;-74
2023/09/25 05:12:50;;;;;;;28.73;15.93;;;;;;;17.22;93.32;101229.55;126720;1086;104184;-75
2023/09/25 05:15:19;;;;;;;32.57;15.37;;;;;;;17.26;93.31;101235.80;127838;1085;101891;-75
2023/09/25 05:17:49;;;;;;;36.37;16.43;;;;;;;17.33;93.26;101242.14;127311;1086;107798;-74
2023/09/25 05:20:19;;;;;;;28.80;15.23;;;;;;;17.37;92.61;101236.02;128175;1086;104153;-73
2023/09/25 05:22:49;;;;;;;27.93;15.87;;;;;;;17.42;92.61;101244.95;127919;1086;104258;-71
2023/09/25 05:25:19;;;;;;;28.30;15.73;;;;;;;17.48;92.50;101239.77;127012;1086;102501;-71
2023/09/25 05:27:49;;;;;;;27.37;15.07;;;;;;;17.57;92.14;101245.24;126902;1086;101951;-73
2023/09/25 05:30:20;;;;;;;31.93;16.20;;;;;;;17.66;92.26;101243.66;126711;1086;104637;-72
2023/09/25 05:32:51;;;;;;;26.40;15.33;;;;;;;17.72;91.78;101249.95;127679;1085;101853;-71
2023/09/25 05:35:20;;;;;;;25.47;15.27;;;;;;;17.80;91.62;101244.79;126895;1086;104181;-74
2023/09/25 05:37:51;;;;;;;31.37;14.73;;;;;;;17.86;91.50;101252.86;126624;1086;101942;-73
2023/09/25 05:40:20;;;;;;;25.73;14.83;;;;;;;17.91;91.28;101255.63;127304;1085;104229;-74
2023/09/25 05:42:50;;;;;;;28.40;14.43;;;;;;;17.95;90.95;101261.02;127397;1085;102742;-73
2023/09/25 05:45:20;;;;;;;29.53;15.23;;;;;;;18.00;90.48;101258.45;127665;1086;104156;-74
2023/09/25 05:48:10;;;;;;;;;;;;;;;;;;;;;
2023/09/25 05:51:07;;;;;;;27.60;14.93;;;;;;;18.14;90.75;101258.69;127472;1086;104295;-73
2023/09/25 05:53:38;;;;;;;26.27;14.77;;;;;;;18.23;90.51;101269.47;127003;1086;102126;-76
2023/09/25 05:56:23;;;;;;;28.33;13.97;;;;;;;18.31;90.20;101267.82;127615;1086;104021;-76
2023/09/25 05:59:23;;;;;;;27.73;14.77;;;;;;;18.40;89.93;101260.85;128826;1085;104015;-76
2023/09/25 06:02:10;;;;;;;25.20;13.07;;;;;;;18.48;90.47;101265.43;126577;1086;102268;-75
2023/09/25 06:05:16;;;;;;;26.70;13.47;;;;;;;18.56;89.74;101270.86;126653;1086;101922;-77
2023/09/25 06:08:08;;;;;;;24.37;13.43;;;;;;;18.66;90.28;101274.55;127854;1086;102011;-79
2023/09/25 06:11:14;;;;;;;25.17;13.40;;;;;;;18.72;89.39;101271.09;127739;1086;101836;-77
2023/09/25 06:17:28;;;;;;;23.73;12.80;;;;;;;18.87;88.96;101281.98;128227;1086;102404;-77
2023/09/25 06:20:17;;;;;;;25.45;12.85;;;;;;;18.97;88.34;101288.31;127547;1086;101896;-75
2023/09/25 06:23:14;;;;;;;28.07;13.43;;;;;;;19.07;87.71;101286.66;126659;1086;102291;-76
2023/09/25 06:26:16;;;;;;;26.20;12.53;;;;;;;19.15;87.43;101290.31;127902;1086;101867;-76
2023/09/25 06:29:01;;;;;;;22.03;13.13;;;;;;;19.26;88.27;101282.47;127884;1086;101874;-75
2023/09/25 06:31:36;;;;;;;25.93;13.23;;;;;;;19.35;86.68;101288.82;127943;1086;101961;-77
2023/09/25 06:34:12;;;;;;;27.47;12.03;;;;;;;19.42;87.22;101289.77;128011;1085;101999;-75
2023/09/25 06:36:57;;;;;;;24.57;12.80;;;;;;;19.50;87.19;101289.87;127985;1086;101900;-76
2023/09/25 06:39:54;;;;;;;26.97;12.10;;;;;;;19.59;85.86;101289.97;127848;1085;101911;-74
2023/09/25 06:42:33;;;;;;;25.80;12.50;;;;;;;19.71;85.48;101291.86;128365;1085;104201;-73
2023/09/25 06:45:21;;;;;;;25.47;12.20;;;;;;;19.81;85.16;101293.78;126666;1086;104152;-78
2023/09/25 06:48:12;;;;;;;29.30;12.83;;;;;;;19.92;85.61;101296.56;128346;1085;104249;-77
2023/09/25 06:50:58;;;;;;;26.23;11.87;;;;;;;20.03;85.42;101294.00;126920;1086;117367;-77
2023/09/25 06:53:58;;;;;;;28.60;11.77;;;;;;;20.14;85.16;101292.32;128236;1086;101625;-76
2023/09/25 06:56:43;;;;;;;24.13;11.60;;;;;;;20.29;84.89;101297.78;127274;1086;104121;-76
2023/09/25 06:59:34;;;;;;;26.27;10.93;;;;;;;20.48;84.16;101300.60;126817;1086;104177;-76
2023/09/25 07:02:33;;;;;;;25.73;10.57;;;;;;;20.66;83.81;101302.52;127674;1086;101983;-75
2023/09/25 07:05:15;;;;;;;26.97;10.73;;;;;;;20.84;83.16;101307.09;127866;1086;104229;-73
2023/09/25 07:08:01;;;;;;;24.07;9.67;;;;;;;21.03;83.00;101307.20;127882;1086;104133;-72
2023/09/25 07:10:48;;;;;;;22.70;10.55;;;;;;;21.20;83.41;101305.52;126870;1086;104169;-75
2023/09/25 07:13:24;;;;;;;23.43;10.87;;;;;;;21.36;83.28;101309.13;127020;1086;101832;-74
2023/09/25 07:16:02;;;;;;;27.83;10.77;;;;;;;21.53;82.74;101304.80;126956;1086;101989;-74
2023/09/25 07:18:34;;;;;;;24.20;10.33;;;;;;;21.73;81.77;101317.30;127929;1086;102224;-73
2023/09/25 07:21:03;;;;;;;24.97;10.50;;;;;;;21.88;81.26;101311.12;127694;1086;103401;-73
2023/09/25 07:23:34;;;;;;;26.60;9.77;;;;;;;22.06;80.80;101304.89;127914;1086;101803;-74
2023/09/25 07:26:31;;;;;;;23.50;9.80;;;;;;;22.22;80.65;101301.36;127754;1086;101913;-73
2023/09/25 07:31:58;;;;;;;21.93;9.77;;;;;;;22.56;79.48;101305.81;128163;1086;118591;-74
2023/09/25 07:34:29;;;;;;;25.87;10.67;;;;;;;22.69;79.27;101304.01;127345;1086;102433;-73
2023/09/25 07:36:59;;;;;;;26.47;10.00;;;;;;;22.82;79.31;101303.10;127637;1086;102065;-75
2023/09/25 07:39:33;;;;;;;24.80;9.47;;;;;;;22.92;78.67;101315.58;127490;1086;101789;-78
2023/09/25 07:42:03;;;;;;;29.35;10.43;;;;;;;23.01;78.64;101309.30;127391;1086;102149;-76
2023/09/25 07:44:38;;;;;;;21.70;9.20;;;;;;;23.08;77.82;101313.78;127041;1086;101945;-76
2023/09/25 07:47:12;;;;;;;21.87;8.93;;;;;;;23.23;77.67;101307.46;127086;1086;101885;-78
2023/09/25 07:49:45;;;;;;;21.97;9.17;;;;;;;23.40;76.52;101303.84;126773;1086;104218;-76
2023/09/25 07:52:19;;;;;;;28.70;9.20;;;;;;;23.54;76.57;101304.65;128147;1085;111658;-77
2023/09/25 07:55:06;;;;;;;22.47;8.20;;;;;;;23.65;75.70;101309.95;127290;1086;101657;-78
2023/09/25 08:01:04;;;;;;;25.17;8.47;;;;;;;23.84;73.70;101311.67;126357;1089;102088;-75
2023/09/25 08:03:52;;;;;;;23.40;9.10;;;;;;;23.90;72.10;101313.40;126193;1086;102052;-75
2023/09/25 08:06:46;;;;;;;;;;;;;;;24.02;70.72;101307.95;127826;1085;101977;-75
2023/09/25 08:09:19;;;;;;;28.30;9.00;;;;;;;24.15;71.92;101303.42;128855;1085;101417;-75
2023/09/25 08:12:05;;;;;;;23.10;8.07;;;;;;;24.25;70.56;101303.31;126709;1085;102123;-77
2023/09/25 08:14:37;;;;;;;21.23;7.17;;;;;;;24.34;70.24;101308.60;127462;1085;102104;-75
2023/09/25 08:17:21;;;;;;;22.73;7.47;;;;;;;24.47;68.90;101309.41;129024;1084;101867;-76
2023/09/25 08:20:14;;;;;;;22.93;7.27;;;;;;;24.56;69.11;101309.33;127904;1085;104260;-76
2023/09/25 08:23:01;;;;;;;16.30;6.33;;;;;;;24.63;68.75;101304.81;126752;1086;104277;-73
2023/09/25 08:25:33;;;;;;;17.47;6.70;;;;;;;24.74;68.38;101303.81;127019;1086;104338;-75
2023/09/25 08:28:02;;;;;;;21.57;7.83;;;;;;;24.86;68.13;101294.72;127235;1086;101812;-76
2023/09/25 08:30:32;;;;;;;23.53;6.70;;;;;;;25.01;67.33;101301.73;127975;1085;104153;-75
2023/09/25 08:33:07;;;;;;;13.97;5.63;;;;;;;25.09;65.78;101291.78;127853;1085;104236;-78
2023/09/25 08:35:43;;;;;;;14.70;5.80;;;;;;;25.25;65.23;101292.47;127761;1085;104149;-77
2023/09/25 08:38:29;;;;;;;10.93;5.73;;;;;;;25.39;62.45;101296.82;127919;1085;102087;-77
2023/09/25 08:41:01;;;;;;;15.97;5.93;;;;;;;25.53;62.61;101299.33;127703;1086;101977;-77
2023/09/25 08:43:46;;;;;;;11.27;4.93;;;;;;;25.62;61.96;101293.83;128621;1086;101081;-77
2023/09/25 08:46:30;;;;;;;12.37;5.10;;;;;;;25.72;60.80;101294.58;128272;1086;104327;-76
2023/09/25 08:49:04;;;;;;;11.33;5.03;;;;;;;25.78;57.35;101297.17;126822;1086;101822;-78
2023/09/25 08:55:08;;;;;;;12.73;5.20;;;;;;;25.98;55.60;101286.16;126494;1085;104360;-79
2023/09/25 08:57:58;;;;;;;12.20;5.33;;;;;;;26.01;54.34;101291.48;127529;1086;104027;-76
2023/09/25 09:00:32;;;;;;;11.53;5.00;;;;;;;26.06;52.35;101286.91;126713;1086;101952;-77
2023/09/25 09:03:04;;;;;;;12.37;5.00;;;;;;;26.17;53.59;101295.67;126543;1089;102842;-76
2023/09/25 09:05:35;;;;;;;12.63;4.97;;;;;;;26.22;52.38;101289.34;126642;1086;102151;-76
2023/09/25 09:08:09;;;;;;;13.53;5.13;;;;;;;26.37;52.99;101283.70;126317;1086;104396;-76
2023/09/25 09:10:52;;;;;;;18.13;5.40;;;;;;;26.54;51.98;101284.28;128048;1086;101779;-79
2023/09/25 09:13:24;;;;;;;11.20;5.00;;;;;;;26.71;51.71;101283.13;127906;1086;104321;-77
2023/09/25 09:15:53;;;;;;;12.13;4.90;;;;;;;26.87;51.17;101289.98;127644;1086;104210;-77
2023/09/25 09:18:25;;;;;;;15.03;5.27;;;;;;;26.92;49.90;101281.81;128304;1086;101819;-77
2023/09/25 09:20:57;;;;;;;13.80;5.70;;;;;;;26.92;49.55;101284.50;126724;1086;102421;-78
2023/09/25 09:23:42;;;;;;;13.20;4.73;;;;;;;26.97;49.49;101295.18;126895;1086;101811;-77
2023/09/25 09:26:24;;;;;;;14.13;5.60;;;;;;;27.03;49.26;101284.29;127422;1085;104188;-77
2023/09/25 09:28:54;;;;;;;13.73;5.63;;;;;;;27.04;47.76;101286.95;127461;1086;104188;-74
2023/09/25 09:31:25;;;;;;;12.97;4.70;;;;;;;27.11;47.41;101287.70;126644;1086;103801;-79
2023/09/25 09:34:32;;;;;;;11.17;4.67;;;;;;;27.14;45.55;101282.25;126655;1086;109200;-76
2023/09/25 09:37:10;;;;;;;17.90;5.37;;;;;;;27.11;43.79;101293.09;126517;1089;101907;-76
2023/09/25 09:39:55;;;;;;;10.83;4.33;;;;;;;27.15;45.29;101284.03;127288;1086;104153;-75
2023/09/25 09:42:28;;;;;;;9.27;4.47;;;;;;;27.18;43.12;101289.36;126651;1086;104204;-78
2023/09/25 09:45:31;;;;;;;14.23;4.70;;;;;;;27.25;44.20;101282.03;126918;1086;102331;-77
2023/09/25 09:48:49;;;;;;;9.73;4.43;;;;;;;27.28;44.13;101273.87;127385;1086;104182;-78
2023/09/25 09:52:20;;;;;;;16.07;5.00;;;;;;;27.29;40.89;101274.79;127200;1089;104210;-74
2023/09/25 09:55:36;;;;;;;15.77;4.97;;;;;;;27.39;41.84;101276.38;125734;1093;105448;-75
2023/09/25 09:58:36;;;;;;;12.40;4.90;;;;;;;27.43;41.17;101268.19;125927;1093;104481;-73
2023/09/25 10:01:13;;;;;;;13.70;4.72;;;;;;;27.54;42.40;101270.64;126425;1090;104181;-75
2023/09/25 10:03:55;;;;;;;11.70;5.03;;;;;;;27.67;42.31;101263.16;126412;1089;101897;-77
2023/09/25 10:06:35;;;;;;;12.03;5.20;;;;;;;27.77;40.89;101262.03;127140;1088;104063;-77
2023/09/25 10:09:11;;;;;;;14.63;5.67;;;;;;;27.78;41.08;101266.51;126414;1086;104394;-74
2023/09/25 10:14:43;;;;;;;11.20;4.83;;;;;;;27.93;41.41;101251.75;128057;1085;104184;-75
2023/09/25 10:17:42;;;;;;;13.00;4.90;;;;;;;28.04;40.95;101253.34;126633;1085;104149;-73
2023/09/25 10:20:33;;;;;;;10.47;4.60;;;;;;;27.93;38.60;101256.27;126611;1086;104245;-75
2023/09/25 10:23:11;;;;;;;12.77;4.60;;;;;;;27.97;39.20;101248.09;128554;1085;104053;-74
2023/09/25 10:25:56;;;;;;;9.07;4.40;;;;;;;28.01;38.81;101243.50;127763;1085;104209;-72
2023/09/25 10:28:43;;;;;;;10.80;5.03;;;;;;;28.01;37.46;101242.63;126564;1085;104333;-75
2023/09/25 10:31:37;;;;;;;17.13;5.27;;;;;;;28.02;37.14;101239.89;126456;1086;104337;-74
2023/09/25 10:34:11;;;;;;;10.80;4.77;;;;;;;28.07;37.44;101245.17;127787;1085;102002;-74
2023/09/25 10:37:24;;;;;;;15.43;4.33;;;;;;;28.17;35.53;101233.19;126661;1085;104287;-78
2023/09/25 10:40:30;;;;;;;12.27;4.57;;;;;;;28.27;36.22;101234.73;128676;1085;101773;-76
2023/09/25 10:43:29;;;;;;;7.37;3.90;;;;;;;28.28;32.84;101231.13;126977;1086;104632;-78
2023/09/25 10:46:30;;;;;;;10.47;4.73;;;;;;;28.26;32.79;101227.56;127692;1085;104394;-76
2023/09/25 10:49:31;;;;;;;15.75;4.70;;;;;;;28.24;32.47;101225.84;128904;1085;101805;-78
2023/09/25 10:59:37;;;;;;;8.53;4.50;;;;;;;28.23;30.59;101215.97;127406;1087;104282;-75
2023/09/25 11:02:51;;;;;;;12.30;4.43;;;;;;;28.26;30.85;101216.77;127679;1086;101912;-81
2023/09/25 11:12:52;;;;;;;;;;;;;;;;;;;;;
2023/09/25 11:15:41;;;;;;;10.73;4.40;;;;;;;28.39;30.11;101211.04;126787;1089;104232;-73
2023/09/25 11:18:23;;;;;;;11.70;4.33;;;;;;;28.39;28.07;101222.74;127770;1085;102105;-76
2023/09/25 11:21:22;;;;;;;8.37;4.60;;;;;;;28.42;30.22;101205.56;127133;1086;104181;-73
2023/09/25 11:24:35;;;;;;;11.73;4.43;;;;;;;28.47;30.04;101198.20;127914;1085;101930;-78
2023/09/25 11:27:19;;;;;;;10.00;4.60;;;;;;;28.50;29.84;101207.13;128463;1085;101806;-77
2023/09/25 11:30:33;;;;;;;15.83;4.70;;;;;;;28.56;29.58;101202.48;127785;1085;102305;-75
2023/09/25 11:33:11;;;;;;;11.20;4.47;;;;;;;28.57;29.79;101199.73;126344;1086;104274;-74
2023/09/25 11:35:43;;;;;;;10.70;4.20;;;;;;;28.62;29.82;101191.54;127591;1085;102008;-74
2023/09/25 11:38:21;;;;;;;12.37;4.33;;;;;;;28.65;29.88;101192.33;126561;1086;104341;-75
2023/09/25 11:41:05;;;;;;;10.10;4.28;;;;;;;28.64;28.85;101192.38;126540;1086;104202;-78
2023/09/25 11:43:50;;;;;;;13.83;4.47;;;;;;;28.66;29.25;101196.81;126487;1086;104156;-77
2023/09/25 11:46:24;;;;;;;14.13;4.47;;;;;;;28.67;29.02;101193.19;126200;1086;101965;-76
2023/09/25 11:48:53;;;;;;;11.80;4.57;;;;;;;28.72;29.12;101186.75;126339;1086;104190;-75
2023/09/25 11:51:23;;;;;;;12.50;4.23;;;;;;;28.75;29.63;101187.56;127303;1085;101816;-75
2023/09/25 11:54:05;;;;;;;10.70;4.60;;;;;;;28.78;28.55;101202.77;128014;1085;101867;-76
2023/09/25 11:56:38;;;;;;;11.03;4.53;;;;;;;28.72;28.01;101198.45;127672;1085;102909;-77
2023/09/25 11:59:06;;;;;;;12.85;4.22;;;;;;;28.66;27.99;101194.11;126478;1086;104234;-76
2023/09/25 12:01:39;;;;;;;11.37;4.10;;;;;;;28.63;28.16;101183.39;126105;1086;104267;-75
2023/09/25 12:04:09;;;;;;;7.58;4.05;;;;;;;28.67;28.28;101192.28;126226;1086;104216;-75
2023/09/25 12:06:46;;;;;;;7.93;4.10;;;;;;;28.73;28.25;101191.23;126478;1086;104187;-78
2023/09/25 12:09:52;;;;;;;14.90;4.50;;;;;;;28.67;28.17;101178.78;126179;1086;104661;-75
2023/09/25 12:12:38;;;;;;;8.60;4.20;;;;;;;28.65;28.53;101184.23;126398;1086;101992;-75